This is the latest recevied weather packets stored in our database for station/object OK1FET-4. If no packets are shown the sender has not sent any weather packets the latest 10 day(s).
| Time | Temp. | Humidity | Pressure | Rain* | Wind** | Luminosity | Snow |
|---|---|---|---|---|---|---|---|
| 1788524590 | 27.78° C | 49% | 1014.9 hPa | - | - | - | - |
| 1788523986 | 27.78° C | 49% | 1015 hPa | - | - | - | - |
| 1788523685 | 27.78° C | 49% | 1014.9 hPa | - | - | - | - |
| 1788521876 | 26.67° C | 53% | 1015.5 hPa | - | - | - | - |
| 1788521574 | 26.67° C | 52% | 1015.4 hPa | - | - | - | - |
| 1788521273 | 26.11° C | 53% | 1015.6 hPa | - | - | - | - |
| 1788520971 | 26.11° C | 53% | 1015.2 hPa | - | - | - | - |
| 1788520670 | 26.11° C | 54% | 1015.6 hPa | - | - | - | - |
| 1788520368 | 26.11° C | 54% | 1015.8 hPa | - | - | - | - |
| 1788520067 | 26.67° C | 53% | 1015.8 hPa | - | - | - | - |
| 1788519766 | 26.11° C | 56% | 1015.8 hPa | - | - | - | - |
| 1788518259 | 25° C | 57% | 1016.2 hPa | - | - | - | - |
| 1788517957 | 25.56° C | 55% | 1016.1 hPa | - | - | - | - |
| 1788517656 | 25.56° C | 56% | 1016.4 hPa | - | - | - | - |
| 1788517355 | 25° C | 58% | 1016.3 hPa | - | - | - | - |
| 1788516752 | 25° C | 57% | 1016.4 hPa | - | - | - | - |
| 1788516451 | 25° C | 57% | 1016.6 hPa | - | - | - | - |
| 1788514643 | 24.44° C | 59% | 1017 hPa | - | - | - | - |
| 1788514341 | 24.44° C | 60% | 1017.1 hPa | - | - | - | - |
| 1788514040 | 23.89° C | 61% | 1017.1 hPa | - | - | - | - |
| 1788513739 | 23.33° C | 61% | 1017.2 hPa | - | - | - | - |
| 1788513438 | 23.89° C | 60% | 1017.2 hPa | - | - | - | - |
| 1788513136 | 23.89° C | 61% | 1017.2 hPa | - | - | - | - |
| 1788512835 | 23.89° C | 61% | 1017.5 hPa | - | - | - | - |
| 1788512233 | 23.89° C | 61% | 1017.7 hPa | - | - | - | - |
* Rain since midnight (hover to see other rain measurements)
** Current wind speed in m/s (hover to see current wind gust speed)